createdAt,value
2022-12-18T00:00:10.528Z,-4.43
2022-12-18T00:02:48.439Z,-4.49
2022-12-18T00:05:16.807Z,-4.48
2022-12-18T00:07:45.033Z,-4.51
2022-12-18T00:10:15.424Z,-4.42
2022-12-18T00:12:43.847Z,-4.36
2022-12-18T00:15:12.361Z,-4.43
2022-12-18T00:17:40.668Z,-4.37
2022-12-18T00:20:11.704Z,-4.55
2022-12-18T00:22:39.960Z,-4.68
2022-12-18T00:25:08.846Z,-4.53
2022-12-18T00:27:37.120Z,-4.54
2022-12-18T00:30:06.296Z,-4.70
2022-12-18T00:32:35.229Z,-4.75
2022-12-18T00:35:04.404Z,-4.65
2022-12-18T00:37:35.673Z,-4.72
2022-12-18T00:40:04.321Z,-4.67
2022-12-18T00:42:50.407Z,-4.74
2022-12-18T00:45:18.751Z,-4.81
2022-12-18T00:47:48.155Z,-4.80
2022-12-18T00:50:16.495Z,-4.59
2022-12-18T00:52:46.456Z,-4.34
2022-12-18T00:55:15.119Z,-4.41
2022-12-18T00:57:43.909Z,-4.41
2022-12-18T01:00:14.524Z,-4.36
2022-12-18T01:02:43.882Z,-4.52
2022-12-18T01:05:14.510Z,-4.25
2022-12-18T01:07:42.878Z,-4.49
2022-12-18T01:10:16.839Z,-4.31
2022-12-18T01:12:45.681Z,-4.55
2022-12-18T01:15:14.822Z,-4.46
2022-12-18T01:17:43.209Z,-4.63
2022-12-18T01:20:13.898Z,-4.76
2022-12-18T01:22:42.247Z,-4.67
2022-12-18T01:25:12.529Z,-4.85
2022-12-18T01:27:41.127Z,-4.95
2022-12-18T01:30:10.346Z,-4.88
2022-12-18T01:32:38.789Z,-4.76
2022-12-18T01:35:08.362Z,-4.88
2022-12-18T01:37:36.639Z,-4.85
2022-12-18T01:40:05.475Z,-4.94
2022-12-18T01:42:35.149Z,-4.98
2022-12-18T01:45:10.938Z,-5.08
2022-12-18T01:47:41.509Z,-5.25
2022-12-18T01:50:14.251Z,-5.36
2022-12-18T01:52:43.382Z,-5.43
2022-12-18T01:55:13.529Z,-5.45
2022-12-18T01:57:43.881Z,-5.45
2022-12-18T02:00:15.922Z,-5.37
2022-12-18T02:02:45.776Z,-5.40
2022-12-18T02:05:18.098Z,-5.40
2022-12-18T02:07:55.657Z,-5.48
2022-12-18T02:10:28.429Z,-5.36
2022-12-18T02:13:05.466Z,-5.37
2022-12-18T02:15:39.566Z,-5.35
2022-12-18T02:18:11.448Z,-5.41
2022-12-18T02:20:44.908Z,-5.52
2022-12-18T02:23:21.191Z,-5.54
2022-12-18T02:26:07.037Z,-5.63
2022-12-18T02:28:38.703Z,-5.67
2022-12-18T02:31:13.595Z,-5.70
2022-12-18T02:33:42.784Z,-5.71
2022-12-18T02:36:12.008Z,-5.60
2022-12-18T02:38:41.540Z,-5.66
2022-12-18T02:41:17.359Z,-5.69
2022-12-18T02:43:49.588Z,-5.57
2022-12-18T02:46:33.912Z,-5.36
2022-12-18T02:49:18.401Z,-5.27
2022-12-18T02:51:53.319Z,-5.38
2022-12-18T02:54:29.093Z,-5.61
2022-12-18T02:57:01.560Z,-5.56
2022-12-18T02:59:35.175Z,-5.39
2022-12-18T03:02:07.485Z,-5.43
2022-12-18T03:04:40.903Z,-5.46
2022-12-18T03:07:12.102Z,-5.69
2022-12-18T03:09:44.496Z,-5.84
2022-12-18T03:12:26.644Z,-5.66
2022-12-18T03:15:01.668Z,-5.66
2022-12-18T03:17:33.798Z,-5.68
2022-12-18T03:20:08.252Z,-5.80
2022-12-18T03:22:37.881Z,-5.82
2022-12-18T03:25:10.085Z,-5.72
2022-12-18T03:27:44.924Z,-5.71
2022-12-18T03:30:17.304Z,-5.74
2022-12-18T03:32:55.457Z,-5.78
2022-12-18T03:35:33.815Z,-5.85
2022-12-18T03:38:02.374Z,-5.78
2022-12-18T03:40:41.075Z,-5.85
2022-12-18T03:43:13.827Z,-5.57
2022-12-18T03:45:45.951Z,-5.64
2022-12-18T03:48:19.793Z,-5.72
2022-12-18T03:50:52.422Z,-5.79
2022-12-18T03:53:29.453Z,-5.68
2022-12-18T03:55:58.294Z,-5.74
2022-12-18T03:58:33.919Z,-5.70
2022-12-18T04:01:28.727Z,-5.82
2022-12-18T04:03:57.872Z,-5.93
2022-12-18T04:06:26.306Z,-5.91
2022-12-18T04:08:54.639Z,-6.02
2022-12-18T04:11:26.288Z,-6.07
2022-12-18T04:13:59.791Z,-6.17
2022-12-18T04:16:29.714Z,-6.21
2022-12-18T04:19:01.760Z,-6.32
2022-12-18T04:21:34.268Z,-6.36
2022-12-18T04:24:02.646Z,-6.30
2022-12-18T04:26:32.104Z,-6.22
2022-12-18T04:29:19.798Z,-6.19
2022-12-18T04:31:49.110Z,-6.20
2022-12-18T04:34:18.204Z,-6.20
2022-12-18T04:36:52.032Z,-6.30
2022-12-18T04:39:20.396Z,-6.39
2022-12-18T04:41:51.468Z,-6.46
2022-12-18T04:44:21.254Z,-6.34
2022-12-18T04:46:49.657Z,-6.30
2022-12-18T04:49:17.968Z,-6.29
2022-12-18T04:51:46.244Z,-6.39
2022-12-18T04:54:14.565Z,-6.49
2022-12-18T04:56:42.896Z,-6.43
2022-12-18T04:59:11.155Z,-6.41
2022-12-18T05:01:41.478Z,-6.41
2022-12-18T05:04:10.239Z,-6.52
2022-12-18T05:06:38.762Z,-6.63
2022-12-18T05:09:07.061Z,-6.64
2022-12-18T05:11:35.376Z,-6.62
2022-12-18T05:14:03.739Z,-6.64
2022-12-18T05:16:32.201Z,-6.62
2022-12-18T05:19:01.876Z,-6.60
2022-12-18T05:21:30.250Z,-6.65
2022-12-18T05:23:58.490Z,-6.66
2022-12-18T05:26:26.770Z,-6.71
2022-12-18T05:28:55.062Z,-6.66
2022-12-18T05:31:23.468Z,-6.69
2022-12-18T05:33:51.929Z,-6.66
2022-12-18T05:36:21.604Z,-6.64
2022-12-18T05:38:49.885Z,-6.64
2022-12-18T05:41:18.361Z,-6.57
2022-12-18T05:43:46.652Z,-6.50
2022-12-18T05:46:16.414Z,-6.49
2022-12-18T05:48:45.340Z,-6.48
2022-12-18T05:51:16.661Z,-6.49
2022-12-18T05:53:47.058Z,-6.50
2022-12-18T05:56:16.827Z,-6.44
2022-12-18T05:58:45.817Z,-6.44
2022-12-18T06:01:16.596Z,-6.43
2022-12-18T06:03:45.532Z,-6.39
2022-12-18T06:06:18.948Z,-6.48
2022-12-18T06:08:48.901Z,-6.47
2022-12-18T06:11:21.509Z,-6.50
2022-12-18T06:13:57.904Z,-6.47
2022-12-18T06:16:27.065Z,-6.44
2022-12-18T06:18:55.681Z,-6.38
2022-12-18T06:21:24.087Z,-6.39
2022-12-18T06:23:53.886Z,-6.27
2022-12-18T06:26:27.642Z,-6.13
2022-12-18T06:28:56.645Z,-6.03
2022-12-18T06:31:25.204Z,-6.02
2022-12-18T06:33:53.720Z,-5.86
2022-12-18T06:36:22.411Z,-5.81
2022-12-18T06:38:50.793Z,-5.69
2022-12-18T06:41:22.511Z,-5.67
2022-12-18T06:43:58.117Z,-5.62
2022-12-18T06:46:28.164Z,-5.52
2022-12-18T06:48:56.521Z,-5.47
2022-12-18T06:51:27.335Z,-5.43
2022-12-18T06:53:56.358Z,-5.39
2022-12-18T06:56:26.622Z,-5.17
2022-12-18T06:58:55.369Z,-5.20
2022-12-18T07:01:24.559Z,-5.04
2022-12-18T07:03:55.923Z,-4.84
2022-12-18T07:06:27.332Z,-5.02
2022-12-18T07:08:57.168Z,-5.00
2022-12-18T07:11:27.764Z,-4.87
2022-12-18T07:13:57.271Z,-4.81
2022-12-18T07:16:26.248Z,-4.73
2022-12-18T07:18:55.061Z,-4.72
2022-12-18T07:21:26.809Z,-4.35
2022-12-18T07:23:59.598Z,-4.00
2022-12-18T07:26:29.536Z,-3.93
2022-12-18T07:28:58.735Z,-4.26
2022-12-18T07:31:28.015Z,-4.63
2022-12-18T07:33:57.191Z,-4.75
2022-12-18T07:36:25.531Z,-4.45
2022-12-18T07:38:54.301Z,-4.55
2022-12-18T07:41:22.868Z,-4.77
2022-12-18T07:43:52.876Z,-4.62
2022-12-18T07:46:22.602Z,-4.42
2022-12-18T07:48:51.103Z,-4.38
2022-12-18T07:51:20.206Z,-4.27
2022-12-18T07:53:49.318Z,-4.19
2022-12-18T07:56:29.578Z,-4.11
2022-12-18T07:59:01.237Z,-3.96
2022-12-18T08:01:30.788Z,-3.86
2022-12-18T08:04:00.440Z,-3.81
2022-12-18T08:06:29.263Z,-3.87
2022-12-18T08:08:58.817Z,-3.70
2022-12-18T08:11:29.041Z,-3.55
2022-12-18T08:13:58.101Z,-3.57
2022-12-18T08:16:28.252Z,-3.43
2022-12-18T08:18:56.857Z,-3.05
2022-12-18T08:21:27.398Z,-2.80
2022-12-18T08:23:57.515Z,-2.65
2022-12-18T08:26:30.965Z,-2.34
2022-12-18T08:29:00.795Z,-1.86
2022-12-18T08:31:32.120Z,-1.74
2022-12-18T08:34:00.569Z,-1.89
2022-12-18T08:36:30.812Z,-2.44
2022-12-18T08:38:59.430Z,-2.61
2022-12-18T08:41:29.281Z,-2.29
2022-12-18T08:44:14.929Z,-2.22
2022-12-18T08:46:46.092Z,-1.79
2022-12-18T08:49:14.940Z,-1.75
2022-12-18T08:51:43.736Z,-1.49
2022-12-18T08:58:20.914Z,-0.79
2022-12-18T09:01:04.773Z,-0.82
2022-12-18T09:03:36.502Z,-0.54
2022-12-18T09:06:07.510Z,-0.28
2022-12-18T09:08:37.979Z,-0.60
2022-12-18T09:11:07.598Z,-0.94
2022-12-18T09:13:35.974Z,-0.65
2022-12-18T09:16:05.947Z,-0.34
2022-12-18T09:18:35.796Z,-0.70
2022-12-18T09:21:11.703Z,-0.19
2022-12-18T09:23:40.230Z,0.02
2022-12-18T09:26:09.018Z,0.39
2022-12-18T09:28:39.117Z,0.76
2022-12-18T09:31:10.272Z,0.64
2022-12-18T09:33:40.372Z,0.73
2022-12-18T09:36:12.555Z,0.75
2022-12-18T09:38:41.597Z,1.06
2022-12-18T09:41:20.890Z,1.44
2022-12-18T09:43:52.830Z,0.98
2022-12-18T09:46:27.513Z,0.92
2022-12-18T09:49:02.333Z,0.86
2022-12-18T09:51:35.357Z,0.98
2022-12-18T09:54:08.503Z,0.92
2022-12-18T09:56:38.269Z,1.41
2022-12-18T09:59:07.369Z,1.01
2022-12-18T10:01:44.008Z,1.24
2022-12-18T10:04:15.350Z,1.37
2022-12-18T10:06:48.817Z,1.49
2022-12-18T10:09:24.314Z,1.95
2022-12-18T10:11:59.345Z,1.67
2022-12-18T10:14:32.814Z,1.69
2022-12-18T10:17:07.879Z,1.00
2022-12-18T10:19:51.048Z,1.25
2022-12-18T10:22:32.036Z,1.89
2022-12-18T10:25:05.703Z,2.16
2022-12-18T10:27:36.535Z,1.90
2022-12-18T10:30:10.159Z,1.84
2022-12-18T10:32:40.843Z,1.85
2022-12-18T10:35:19.348Z,1.60
2022-12-18T10:38:09.371Z,1.02
2022-12-18T10:40:51.294Z,1.02
2022-12-18T10:43:24.148Z,0.73
2022-12-18T10:46:06.758Z,-0.11
2022-12-18T10:48:38.552Z,0.16
2022-12-18T10:51:13.089Z,0.12
2022-12-18T10:53:44.608Z,0.01
2022-12-18T10:56:13.643Z,-0.22
2022-12-18T10:58:42.780Z,-0.25
2022-12-18T11:01:13.699Z,-0.39
2022-12-18T11:03:45.175Z,-0.83
2022-12-18T11:06:17.468Z,-0.69
2022-12-18T11:08:59.065Z,-0.43
2022-12-18T11:11:29.128Z,-0.60
2022-12-18T11:14:02.782Z,-0.51
2022-12-18T11:16:35.682Z,-0.54
2022-12-18T11:19:25.392Z,-0.56
2022-12-18T11:21:55.170Z,-0.43
2022-12-18T11:24:29.304Z,-0.59
2022-12-18T11:27:00.002Z,-0.89
2022-12-18T11:29:34.899Z,-0.98
2022-12-18T11:32:35.880Z,-1.04
2022-12-18T11:35:13.601Z,-1.06
2022-12-18T11:37:44.747Z,-0.93
2022-12-18T11:40:16.371Z,-1.47
2022-12-18T11:42:48.930Z,-1.71
2022-12-18T11:45:28.668Z,-1.65
2022-12-18T11:48:01.782Z,-1.91
2022-12-18T11:50:34.010Z,-1.96
2022-12-18T11:53:06.428Z,-1.78
2022-12-18T11:55:40.822Z,-1.85
2022-12-18T11:58:14.972Z,-1.90
2022-12-18T12:00:49.428Z,-1.98
2022-12-18T12:03:53.272Z,-1.86
2022-12-18T12:06:29.235Z,-2.03
2022-12-18T12:09:09.262Z,-1.92
2022-12-18T12:11:46.648Z,-1.65
2022-12-18T12:14:24.501Z,-1.73
2022-12-18T12:16:57.444Z,-1.99
2022-12-18T12:19:36.621Z,-1.99
2022-12-18T12:22:11.584Z,-1.79
2022-12-18T12:24:54.066Z,-2.05
2022-12-18T12:27:29.061Z,-1.80
2022-12-18T12:30:04.907Z,-1.86
2022-12-18T12:32:46.249Z,-1.83
2022-12-18T12:35:34.604Z,-1.99
2022-12-18T12:38:10.820Z,-2.03
2022-12-18T12:40:53.989Z,-2.23
2022-12-18T12:43:31.265Z,-2.33
2022-12-18T12:46:01.886Z,-2.20
2022-12-18T12:48:38.185Z,-2.22
2022-12-18T12:51:12.988Z,-2.17
2022-12-18T12:53:42.864Z,-2.40
2022-12-18T12:56:15.373Z,-2.11
2022-12-18T12:58:51.971Z,-2.09
2022-12-18T13:01:28.204Z,-2.20
2022-12-18T13:04:05.655Z,-2.21
2022-12-18T13:06:44.683Z,-2.33
2022-12-18T13:09:13.371Z,-2.13
2022-12-18T13:12:03.559Z,-2.30
2022-12-18T13:14:34.524Z,-2.26
2022-12-18T13:17:31.927Z,-2.31
2022-12-18T13:20:18.096Z,-2.19
2022-12-18T13:22:48.799Z,-2.14
2022-12-18T13:25:34.554Z,-2.13
2022-12-18T13:28:10.697Z,-2.05
2022-12-18T13:30:46.455Z,-2.25
2022-12-18T13:34:02.168Z,-2.19
2022-12-18T13:36:32.230Z,-1.92
2022-12-18T13:39:36.699Z,-2.15
2022-12-18T13:42:58.724Z,-2.37
2022-12-18T13:45:52.393Z,-2.38
2022-12-18T13:48:23.939Z,-2.47
2022-12-18T13:50:59.978Z,-2.43
2022-12-18T13:53:31.840Z,-2.34
2022-12-18T13:56:00.976Z,-2.05
2022-12-18T13:58:30.666Z,-2.30
2022-12-18T14:01:03.174Z,-2.31
2022-12-18T14:03:32.633Z,-2.33
2022-12-18T14:06:18.745Z,-2.41
2022-12-18T14:08:48.119Z,-2.38
2022-12-18T14:11:23.737Z,-2.24
2022-12-18T14:13:54.800Z,-2.26
2022-12-18T14:16:24.911Z,-2.14
2022-12-18T14:18:56.525Z,-2.16
2022-12-18T14:21:33.602Z,-2.07
2022-12-18T14:24:18.279Z,-2.16
2022-12-18T14:26:50.477Z,-2.17
2022-12-18T14:29:28.777Z,-2.09
2022-12-18T14:32:18.331Z,-2.49
2022-12-18T14:34:48.405Z,-2.52
2022-12-18T14:37:18.877Z,-2.50
2022-12-18T14:39:58.150Z,-2.46
2022-12-18T14:42:29.351Z,-2.53
2022-12-18T14:45:41.595Z,-2.53
2022-12-18T14:48:23.358Z,-2.48
2022-12-18T14:51:02.447Z,-2.48
2022-12-18T14:53:37.464Z,-2.40
2022-12-18T14:56:16.542Z,-2.31
2022-12-18T14:58:53.430Z,-2.34
2022-12-18T15:01:38.337Z,-2.30
2022-12-18T15:04:28.203Z,-2.31
2022-12-18T15:07:14.837Z,-2.35
2022-12-18T15:09:48.378Z,-2.25
2022-12-18T15:12:30.487Z,-2.24
2022-12-18T15:15:01.407Z,-2.30
2022-12-18T15:17:33.290Z,-2.62
2022-12-18T15:20:06.393Z,-2.56
2022-12-18T15:22:39.224Z,-2.48
2022-12-18T15:25:28.542Z,-2.56
2022-12-18T15:27:57.707Z,-2.58
2022-12-18T15:30:29.443Z,-2.45
2022-12-18T15:33:19.866Z,-2.38
2022-12-18T15:35:59.788Z,-2.43
2022-12-18T15:38:31.055Z,-1.95
2022-12-18T15:41:00.688Z,-2.40
2022-12-18T15:43:38.253Z,-2.18
2022-12-18T15:46:09.863Z,-2.43
2022-12-18T15:48:43.817Z,-2.67
2022-12-18T15:51:19.354Z,-2.50
2022-12-18T15:53:49.892Z,-2.31
2022-12-18T15:56:37.037Z,-2.47
2022-12-18T15:59:10.062Z,-2.30
2022-12-18T16:01:44.870Z,-2.64
2022-12-18T16:04:23.295Z,-2.65
2022-12-18T16:07:14.491Z,-2.59
2022-12-18T16:09:50.025Z,-2.67
2022-12-18T16:12:23.718Z,-2.55
2022-12-18T16:14:53.934Z,-2.42
2022-12-18T16:17:24.720Z,-2.63
2022-12-18T16:19:53.986Z,-2.55
2022-12-18T16:22:28.230Z,-2.50
2022-12-18T16:24:59.393Z,-2.58
2022-12-18T16:27:29.190Z,-2.50
2022-12-18T16:30:00.794Z,-2.59
2022-12-18T16:32:30.243Z,-2.49
2022-12-18T16:35:05.403Z,-2.48
2022-12-18T16:37:46.836Z,-2.47
2022-12-18T16:40:19.069Z,-2.47
2022-12-18T16:42:50.548Z,-2.46
2022-12-18T16:45:22.961Z,-2.39
2022-12-18T16:47:53.328Z,-2.35
2022-12-18T16:50:24.948Z,-2.29
2022-12-18T16:52:57.269Z,-2.27
2022-12-18T16:55:27.336Z,-2.27
2022-12-18T16:57:58.849Z,-2.31
2022-12-18T17:00:29.962Z,-2.30
2022-12-18T17:02:59.835Z,-2.25
2022-12-18T17:05:30.364Z,-2.48
2022-12-18T17:08:01.221Z,-2.36
2022-12-18T17:10:32.936Z,-2.57
2022-12-18T17:13:03.518Z,-2.53
2022-12-18T17:15:33.560Z,-2.57
2022-12-18T17:18:04.757Z,-2.48
2022-12-18T17:20:36.494Z,-2.14
2022-12-18T17:23:10.040Z,-2.16
2022-12-18T17:25:42.892Z,-2.08
2022-12-18T17:28:14.737Z,-2.40
2022-12-18T17:30:44.286Z,-2.24
2022-12-18T17:33:14.586Z,-2.32
2022-12-18T17:35:50.278Z,-2.36
2022-12-18T17:38:24.637Z,-2.36
2022-12-18T17:41:03.754Z,-2.36
2022-12-18T17:43:36.098Z,-2.39
2022-12-18T17:46:06.534Z,-2.39
2022-12-18T17:48:38.293Z,-2.45
2022-12-18T17:51:12.077Z,-2.27
2022-12-18T17:53:46.272Z,-2.04
2022-12-18T17:56:18.030Z,-2.12
2022-12-18T17:58:48.562Z,-1.96
2022-12-18T18:01:21.040Z,-2.22
2022-12-18T18:03:53.507Z,-2.22
2022-12-18T18:06:24.337Z,-2.34
2022-12-18T18:08:58.470Z,-2.39
2022-12-18T18:11:46.853Z,-2.58
2022-12-18T18:14:20.880Z,-2.50
2022-12-18T18:16:55.341Z,-2.50
2022-12-18T18:19:27.133Z,-2.36
2022-12-18T18:21:58.098Z,-2.32
2022-12-18T18:24:31.543Z,-2.52
2022-12-18T18:27:01.355Z,-2.37
2022-12-18T18:29:31.927Z,-2.29
2022-12-18T18:32:02.007Z,-2.28
2022-12-18T18:34:32.841Z,-2.08
2022-12-18T18:37:02.049Z,-1.92
2022-12-18T18:39:34.328Z,-1.77
2022-12-18T18:42:04.131Z,-1.78
2022-12-18T18:44:34.023Z,-2.12
2022-12-18T18:47:03.627Z,-2.02
2022-12-18T18:49:36.687Z,-2.40
2022-12-18T18:52:08.727Z,-2.46
2022-12-18T18:54:51.903Z,-2.34
2022-12-18T18:57:31.368Z,-2.13
2022-12-18T19:00:02.083Z,-2.51
2022-12-18T19:02:32.797Z,-1.97
2022-12-18T19:05:03.232Z,-2.49
2022-12-18T19:07:33.334Z,-2.47
2022-12-18T19:10:05.373Z,-2.53
2022-12-18T19:12:54.132Z,-2.36
2022-12-18T19:15:24.375Z,-2.13
2022-12-18T19:17:54.011Z,-2.78
2022-12-18T19:20:23.978Z,-2.48
2022-12-18T19:22:55.800Z,-2.10
2022-12-18T19:25:40.607Z,-2.43
2022-12-18T19:28:21.987Z,-2.03
2022-12-18T19:31:07.674Z,-2.24
2022-12-18T19:33:45.950Z,-1.76
2022-12-18T19:36:19.430Z,-2.01
2022-12-18T19:38:49.829Z,-2.41
2022-12-18T19:41:22.552Z,-2.68
2022-12-18T19:43:55.187Z,-2.46
2022-12-18T19:46:26.126Z,-2.48
2022-12-18T19:48:58.688Z,-2.21
2022-12-18T19:51:32.557Z,-2.23
2022-12-18T19:54:03.854Z,-2.19
2022-12-18T19:56:37.256Z,-2.58
2022-12-18T19:59:06.589Z,-2.42
2022-12-18T20:01:45.440Z,-2.45
2022-12-18T20:04:14.303Z,-2.53
2022-12-18T20:06:55.009Z,-2.35
2022-12-18T20:09:24.697Z,-2.02
2022-12-18T20:11:57.335Z,-2.41
2022-12-18T20:14:28.705Z,-2.56
2022-12-18T20:16:58.051Z,-2.28
2022-12-18T20:19:29.801Z,-2.38
2022-12-18T20:22:00.140Z,-2.33
2022-12-18T20:24:32.744Z,-2.43
2022-12-18T20:27:04.103Z,-2.58
2022-12-18T20:29:33.661Z,-2.73
2022-12-18T20:32:09.170Z,-2.69
2022-12-18T20:34:38.660Z,-2.44
2022-12-18T20:37:11.515Z,-2.72
2022-12-18T20:39:41.606Z,-2.34
2022-12-18T20:42:13.255Z,-2.52
2022-12-18T20:44:43.564Z,-2.49
2022-12-18T20:47:12.814Z,-2.26
2022-12-18T20:49:44.858Z,-2.52
2022-12-18T20:52:15.331Z,-2.24
2022-12-18T20:54:44.638Z,-2.81
2022-12-18T20:57:15.341Z,-2.47
2022-12-18T20:59:48.070Z,-2.49
2022-12-18T21:02:17.699Z,-2.51
2022-12-18T21:04:46.527Z,-2.57
2022-12-18T21:07:15.306Z,-2.36
2022-12-18T21:09:45.925Z,-2.29
2022-12-18T21:12:42.834Z,-2.16
2022-12-18T21:15:16.890Z,-2.35
2022-12-18T21:17:46.460Z,-2.47
2022-12-18T21:20:15.979Z,-2.22
2022-12-18T21:22:48.204Z,-2.47
2022-12-18T21:25:18.309Z,-2.32
2022-12-18T21:27:48.300Z,-2.81
2022-12-18T21:30:18.100Z,-2.65
2022-12-18T21:32:46.870Z,-2.59
2022-12-18T21:35:15.590Z,-2.53
2022-12-18T21:37:46.025Z,-2.43
2022-12-18T21:40:15.183Z,-1.99
2022-12-18T21:43:02.373Z,-2.49
2022-12-18T21:45:32.509Z,-2.55
2022-12-18T21:48:01.211Z,-2.78
2022-12-18T21:50:29.725Z,-2.25
2022-12-18T21:52:58.218Z,-2.39
2022-12-18T21:55:42.732Z,-2.16
2022-12-18T21:58:14.728Z,-2.29
2022-12-18T22:00:48.571Z,-2.18
2022-12-18T22:03:19.387Z,-2.06
2022-12-18T22:05:51.444Z,-2.33
2022-12-18T22:08:51.376Z,-2.46
2022-12-18T22:14:43.316Z,-2.23
2022-12-18T22:17:13.095Z,-2.28
2022-12-18T22:19:43.147Z,-2.13
2022-12-18T22:22:11.989Z,-1.95
2022-12-18T22:24:41.652Z,-1.97
2022-12-18T22:27:10.411Z,-2.13
2022-12-18T22:29:56.084Z,-2.35
2022-12-18T22:32:31.365Z,-2.39
2022-12-18T22:35:06.251Z,-2.42
2022-12-18T22:37:37.013Z,-2.36
2022-12-18T22:40:07.343Z,-2.40
2022-12-18T22:42:35.964Z,-2.38
2022-12-18T22:45:04.643Z,-2.41
2022-12-18T22:47:34.318Z,-2.42
2022-12-18T22:50:02.673Z,-2.37
2022-12-18T22:52:31.176Z,-2.26
2022-12-18T22:54:59.577Z,-2.42
2022-12-18T22:57:28.662Z,-2.48
2022-12-18T22:59:57.023Z,-2.29
2022-12-18T23:02:25.565Z,-2.39
2022-12-18T23:04:55.546Z,-2.41
2022-12-18T23:07:23.945Z,-2.43
2022-12-18T23:09:59.552Z,-2.32
2022-12-18T23:12:29.512Z,-2.31
2022-12-18T23:14:57.898Z,-2.20
2022-12-18T23:17:26.270Z,-2.37
2022-12-18T23:19:55.976Z,-2.62
2022-12-18T23:22:24.543Z,-2.47
2022-12-18T23:24:53.116Z,-2.33
2022-12-18T23:27:21.417Z,-2.45
2022-12-18T23:29:49.799Z,-2.40
2022-12-18T23:32:20.222Z,-2.50
2022-12-18T23:34:48.584Z,-2.38
2022-12-18T23:37:42.375Z,-2.52
2022-12-18T23:40:09.470Z,-2.50
2022-12-18T23:42:37.768Z,-2.39
2022-12-18T23:45:17.395Z,-2.36
2022-12-18T23:47:46.324Z,-2.27
2022-12-18T23:50:19.313Z,-2.40
2022-12-18T23:52:52.623Z,-2.48
2022-12-18T23:55:22.128Z,-2.45
2022-12-18T23:57:50.469Z,-2.37
